Avoca, Arkansas
Current Conditions -  °F | °C
As of 5:57 AM on Saturday 25 Oct 2014 (Local Time) from KROG Reporting Station
Clear Clear  
Wind Chill: 59°   Ceiling: Unl
Heat Index: 59°   Visibility: 10mi
Dew Point: 56°   Wind: 5mph
Humidity: 90%   Direction: 180°S
Pressure: 30.11"   Gusts: NA
Location:  36.4°N, 94.07°W
Report Text: KROG 251057Z AUTO 18004KT 10SM CLR 15/13 A3011 RMK AO2 SLP186 T01500133
Loading
Personal Weather Stations






























Interactive Weather Map
Tropical Storm Tracking
New forecast layout! Learn more

10-Day Weather Forecast

Advertisements
Track Severe Weather on mobile